createdAt,value
2019-05-20T00:02:43.390Z,14.39
2019-05-20T00:13:17.214Z,14.62
2019-05-20T00:23:50.746Z,13.96
2019-05-20T00:34:34.749Z,13.90
2019-05-20T00:44:58.880Z,13.65
2019-05-20T00:55:40.450Z,13.74
2019-05-20T01:06:13.800Z,13.50
2019-05-20T01:16:47.324Z,13.50
2019-05-20T01:27:20.589Z,13.53
2019-05-20T01:37:53.505Z,13.48
2019-05-20T01:48:27.269Z,13.79
2019-05-20T01:59:00.281Z,13.73
2019-05-20T02:09:33.998Z,13.55
2019-05-20T02:20:07.860Z,13.52
2019-05-20T02:30:41.427Z,13.30
2019-05-20T02:41:15.147Z,13.28
2019-05-20T02:51:49.781Z,13.16
2019-05-20T03:02:23.263Z,13.28
2019-05-20T03:12:56.928Z,12.77
2019-05-20T03:23:30.374Z,12.76
2019-05-20T03:34:04.059Z,12.88
2019-05-20T03:44:37.628Z,13.14
2019-05-20T03:55:10.975Z,13.08
2019-05-20T04:05:44.488Z,13.33
2019-05-20T04:16:18.030Z,14.05
2019-05-20T04:26:51.715Z,14.64
2019-05-20T04:37:24.417Z,14.11
2019-05-20T04:47:57.288Z,16.11
2019-05-20T04:58:30.771Z,16.40
2019-05-20T05:09:04.482Z,17.37
2019-05-20T05:19:37.759Z,17.91
2019-05-20T05:30:11.593Z,18.75
2019-05-20T05:40:47.109Z,19.08
2019-05-20T05:51:20.572Z,19.44
2019-05-20T06:01:54.093Z,18.98
2019-05-20T06:12:27.635Z,20.46
2019-05-20T06:23:00.486Z,21.42
2019-05-20T06:33:33.745Z,20.59
2019-05-20T06:44:06.428Z,21.39
2019-05-20T06:54:39.857Z,22.76
2019-05-20T07:05:13.230Z,24.06
2019-05-20T07:15:46.836Z,24.14
2019-05-20T07:26:20.197Z,24.38
2019-05-20T07:37:03.099Z,24.60
2019-05-20T07:47:29.537Z,24.92
2019-05-20T07:58:05.937Z,25.45
2019-05-20T08:08:39.490Z,25.56
2019-05-20T08:19:12.976Z,28.82
2019-05-20T08:29:46.311Z,25.17
2019-05-20T08:40:19.789Z,24.23
2019-05-20T08:50:53.062Z,24.52
2019-05-20T09:01:26.770Z,25.04
2019-05-20T09:12:00.522Z,26.55
2019-05-20T09:22:34.068Z,24.91
2019-05-20T09:33:07.653Z,25.37
2019-05-20T09:43:41.082Z,25.73
2019-05-20T09:54:14.287Z,26.92
2019-05-20T10:04:47.892Z,25.46
2019-05-20T10:15:21.304Z,23.85
2019-05-20T10:25:54.794Z,23.20
2019-05-20T10:36:28.536Z,20.53
2019-05-20T10:47:02.214Z,18.54
2019-05-20T10:57:36.010Z,16.55
2019-05-20T11:08:09.291Z,16.98
2019-05-20T11:18:42.764Z,17.13
2019-05-20T11:29:16.248Z,17.87
2019-05-20T11:39:49.646Z,18.06
2019-05-20T11:50:23.489Z,18.18
2019-05-20T12:00:57.149Z,18.27
2019-05-20T12:11:30.940Z,18.33
2019-05-20T12:22:04.458Z,17.94
2019-05-20T12:32:37.978Z,16.13
2019-05-20T12:43:11.377Z,14.40
2019-05-20T12:53:45.018Z,14.16
2019-05-20T13:04:17.657Z,14.63
2019-05-20T13:14:50.994Z,14.89
2019-05-20T13:25:24.697Z,15.63
2019-05-20T13:35:58.334Z,16.42
2019-05-20T13:46:31.879Z,17.15
2019-05-20T13:57:05.160Z,17.97
2019-05-20T14:07:38.862Z,18.52
2019-05-20T14:18:13.567Z,18.07
2019-05-20T14:28:47.149Z,17.18
2019-05-20T14:39:21.296Z,16.76
2019-05-20T14:49:54.843Z,16.35
2019-05-20T15:00:30.446Z,15.08
2019-05-20T15:11:03.911Z,14.64
2019-05-20T15:21:37.769Z,14.84
2019-05-20T15:32:11.417Z,16.19
2019-05-20T15:42:44.192Z,16.63
2019-05-20T15:53:17.871Z,16.70
2019-05-20T16:03:51.670Z,16.67
2019-05-20T16:14:25.661Z,16.49
2019-05-20T16:24:58.437Z,16.20
2019-05-20T16:35:32.124Z,15.63
2019-05-20T16:46:05.553Z,15.37
2019-05-20T16:56:38.834Z,15.06
2019-05-20T17:07:12.576Z,14.71
2019-05-20T17:17:45.973Z,14.46
2019-05-20T17:28:19.473Z,14.02
2019-05-20T17:38:53.074Z,13.93
2019-05-20T17:49:26.571Z,13.58
2019-05-20T18:00:00.176Z,13.46
2019-05-20T18:10:33.712Z,12.66
2019-05-20T18:21:07.308Z,12.54
2019-05-20T18:31:40.941Z,12.03
2019-05-20T18:42:14.586Z,12.06
2019-05-20T18:52:48.423Z,11.59
2019-05-20T19:03:21.661Z,11.77
2019-05-20T19:13:54.690Z,11.70
2019-05-20T19:24:28.002Z,11.72
2019-05-20T19:35:01.591Z,11.53
2019-05-20T19:45:35.204Z,11.86
2019-05-20T19:56:08.821Z,11.88
2019-05-20T20:06:42.378Z,11.73
2019-05-20T20:17:15.971Z,11.28
2019-05-20T20:27:49.638Z,11.29
2019-05-20T20:38:23.086Z,11.21
2019-05-20T20:48:56.389Z,10.88
2019-05-20T20:59:29.198Z,10.71
2019-05-20T21:10:02.734Z,10.70
2019-05-20T21:20:36.297Z,10.77
2019-05-20T21:31:09.910Z,10.61
2019-05-20T21:41:43.299Z,10.85
2019-05-20T21:52:17.010Z,10.89
2019-05-20T22:02:49.726Z,10.44
2019-05-20T22:13:22.475Z,10.24
2019-05-20T22:23:58.184Z,9.83
2019-05-20T22:34:31.705Z,9.62
2019-05-20T22:45:05.316Z,9.61
2019-05-20T22:55:38.026Z,9.67
2019-05-20T23:06:11.585Z,9.61
2019-05-20T23:16:45.076Z,9.97
2019-05-20T23:27:18.476Z,10.39
2019-05-20T23:37:52.000Z,10.41
2019-05-20T23:48:25.851Z,9.78
2019-05-20T23:58:59.326Z,9.63
